createdAt,value
2023-02-25T00:01:38.368Z,99892.53
2023-02-25T00:04:05.247Z,99888.94
2023-02-25T00:06:31.749Z,99886.69
2023-02-25T00:08:58.340Z,99900.25
2023-02-25T00:11:26.273Z,99891.56
2023-02-25T00:13:53.353Z,99892.75
2023-02-25T00:16:21.907Z,99894.53
2023-02-25T00:18:53.451Z,99883.59
2023-02-25T00:21:20.173Z,99894.16
2023-02-25T00:23:48.771Z,99892.38
2023-02-25T00:26:17.537Z,99899.03
2023-02-25T00:28:46.974Z,99904.88
2023-02-25T00:31:15.653Z,99903.00
2023-02-25T00:33:42.516Z,99917.56
2023-02-25T00:36:11.567Z,99900.22
2023-02-25T00:38:38.358Z,99910.78
2023-02-25T00:41:06.680Z,99914.66
2023-02-25T00:43:35.889Z,99874.38
2023-02-25T00:46:04.148Z,99908.34
2023-02-25T00:48:31.990Z,99900.19
2023-02-25T00:51:05.214Z,99866.44
2023-02-25T00:53:31.856Z,99899.09
2023-02-25T00:55:59.708Z,99905.50
2023-02-25T00:58:26.354Z,99907.19
2023-02-25T01:00:52.924Z,99902.16
2023-02-25T01:03:21.205Z,99881.09
2023-02-25T01:05:48.021Z,99899.78
2023-02-25T01:08:15.495Z,99899.88
2023-02-25T01:10:42.062Z,99900.72
2023-02-25T01:13:08.644Z,99902.28
2023-02-25T01:15:35.457Z,99907.53
2023-02-25T01:18:02.383Z,99902.06
2023-02-25T01:20:30.559Z,99898.13
2023-02-25T01:22:57.236Z,99903.34
2023-02-25T01:25:23.808Z,99883.72
2023-02-25T01:27:50.479Z,99872.53
2023-02-25T01:30:17.400Z,99900.56
2023-02-25T01:32:45.059Z,99896.63
2023-02-25T01:35:11.643Z,99900.56
2023-02-25T01:37:39.630Z,99892.69
2023-02-25T01:40:07.224Z,99888.16
2023-02-25T01:42:34.608Z,99866.09
2023-02-25T01:45:28.470Z,99904.13
2023-02-25T01:47:59.728Z,99916.00
2023-02-25T01:50:35.988Z,99914.56
2023-02-25T01:53:05.919Z,99905.59
2023-02-25T01:55:33.497Z,99912.63
2023-02-25T01:58:00.694Z,99913.13
2023-02-25T02:00:29.988Z,99909.53
2023-02-25T02:02:57.677Z,99904.31
2023-02-25T02:05:37.541Z,99905.75
2023-02-25T02:08:06.197Z,99882.00
2023-02-25T02:10:32.880Z,99908.94
2023-02-25T02:12:59.601Z,99905.16
2023-02-25T02:15:32.548Z,99911.81
2023-02-25T02:18:01.197Z,99902.00
2023-02-25T02:20:33.544Z,99899.78
2023-02-25T02:23:34.803Z,99911.66
2023-02-25T02:26:41.583Z,99906.22
2023-02-25T02:29:46.165Z,99906.78
2023-02-25T02:32:20.955Z,99903.06
2023-02-25T02:34:53.456Z,99882.28
2023-02-25T02:37:29.527Z,99906.59
2023-02-25T02:40:07.205Z,99919.97
2023-02-25T02:42:43.518Z,99902.47
2023-02-25T02:45:17.111Z,99913.91
2023-02-25T02:47:49.617Z,99897.22
2023-02-25T02:50:20.850Z,99921.13
2023-02-25T02:52:52.794Z,99917.63
2023-02-25T02:55:21.418Z,99919.03
2023-02-25T02:57:52.434Z,99922.69
2023-02-25T03:00:24.300Z,99914.28
2023-02-25T03:02:54.378Z,99921.19
2023-02-25T03:05:22.451Z,99867.91
2023-02-25T03:07:55.854Z,99921.19
2023-02-25T03:10:22.801Z,99919.34
2023-02-25T03:12:51.760Z,99920.91
2023-02-25T03:15:20.885Z,99920.41
2023-02-25T03:17:54.674Z,99911.56
2023-02-25T03:20:28.234Z,99927.75
2023-02-25T03:22:58.519Z,99903.94
2023-02-25T03:25:29.050Z,99922.19
2023-02-25T03:27:57.837Z,99925.28
2023-02-25T03:30:32.125Z,99912.91
2023-02-25T03:33:05.410Z,99927.91
2023-02-25T03:35:35.058Z,99875.44
2023-02-25T03:38:06.630Z,99918.66
2023-02-25T03:40:36.581Z,99901.75
2023-02-25T03:43:09.542Z,99869.53
2023-02-25T03:45:39.606Z,99895.00
2023-02-25T03:48:09.110Z,99919.06
2023-02-25T03:50:40.765Z,99927.69
2023-02-25T03:53:09.318Z,99936.47
2023-02-25T03:55:52.288Z,99907.69
2023-02-25T03:58:19.407Z,99929.81
2023-02-25T04:00:51.263Z,99936.06
2023-02-25T04:03:19.418Z,99936.06
2023-02-25T04:05:45.972Z,99935.47
2023-02-25T04:08:12.669Z,99940.47
2023-02-25T04:10:39.253Z,99940.78
2023-02-25T04:13:05.845Z,99944.63
2023-02-25T04:15:32.383Z,99940.97
2023-02-25T04:17:59.239Z,99915.44
2023-02-25T04:20:27.472Z,99938.19
2023-02-25T04:22:54.300Z,99943.50
2023-02-25T04:25:21.386Z,99916.50
2023-02-25T04:27:48.050Z,99838.44
2023-02-25T04:30:17.136Z,99941.72
2023-02-25T04:32:44.262Z,99939.13
2023-02-25T04:35:11.024Z,99893.56
2023-02-25T04:37:39.325Z,99943.63
2023-02-25T04:40:07.150Z,99953.44
2023-02-25T04:42:33.708Z,99957.09
2023-02-25T04:45:00.412Z,99958.25
2023-02-25T04:47:27.128Z,99960.94
2023-02-25T04:49:53.664Z,99961.72
2023-02-25T04:52:20.265Z,99959.31
2023-02-25T04:54:48.625Z,99956.50
2023-02-25T04:57:15.670Z,99953.16
2023-02-25T04:59:42.312Z,99963.50
2023-02-25T05:02:10.634Z,99956.16
2023-02-25T05:04:38.475Z,99964.63
2023-02-25T05:07:06.235Z,99954.88
2023-02-25T05:09:33.050Z,99945.41
2023-02-25T05:12:01.771Z,99948.84
2023-02-25T05:14:29.141Z,99947.06
2023-02-25T05:16:56.593Z,99954.78
2023-02-25T05:19:24.698Z,99933.09
2023-02-25T05:21:53.480Z,99939.66
2023-02-25T05:24:20.544Z,99940.06
2023-02-25T05:26:47.095Z,99935.50
2023-02-25T05:29:14.975Z,99929.94
2023-02-25T05:31:41.688Z,99923.50
2023-02-25T05:34:08.315Z,99960.00
2023-02-25T05:36:35.180Z,99949.16
2023-02-25T05:39:01.818Z,99928.59
2023-02-25T05:41:28.991Z,99940.50
2023-02-25T05:43:56.551Z,99937.69
2023-02-25T05:46:25.425Z,99933.19
2023-02-25T05:48:52.243Z,99952.84
2023-02-25T05:51:21.329Z,99948.84
2023-02-25T05:53:48.052Z,99954.91
2023-02-25T05:56:17.555Z,99940.66
2023-02-25T05:58:44.190Z,99954.50
2023-02-25T06:01:12.571Z,99954.50
2023-02-25T06:03:41.408Z,99960.34
2023-02-25T06:06:09.318Z,99953.25
2023-02-25T06:08:35.868Z,99884.41
2023-02-25T06:11:05.624Z,99963.28
2023-02-25T06:13:32.623Z,99973.59
2023-02-25T06:15:59.222Z,99974.94
2023-02-25T06:18:26.013Z,99974.44
2023-02-25T06:20:53.970Z,99975.38
2023-02-25T06:23:20.566Z,99986.78
2023-02-25T06:25:47.162Z,99959.03
2023-02-25T06:28:15.578Z,99984.03
2023-02-25T06:30:42.337Z,99984.28
2023-02-25T06:33:08.896Z,99986.56
2023-02-25T06:35:36.497Z,99984.28
2023-02-25T06:38:04.439Z,99993.56
2023-02-25T06:40:30.982Z,99987.41
2023-02-25T06:42:57.515Z,100003.47
2023-02-25T06:45:27.168Z,99996.47
2023-02-25T06:47:53.749Z,100002.88
2023-02-25T06:50:20.475Z,100010.47
2023-02-25T06:52:47.035Z,100005.66
2023-02-25T06:55:15.450Z,99981.66
2023-02-25T06:57:41.999Z,100010.78
2023-02-25T07:00:09.747Z,100026.75
2023-02-25T07:02:36.303Z,99986.38
2023-02-25T07:05:02.932Z,100023.50
2023-02-25T07:07:29.491Z,100028.72
2023-02-25T07:09:56.032Z,100023.41
2023-02-25T07:12:24.277Z,100029.25
2023-02-25T07:14:52.968Z,100026.53
2023-02-25T07:17:19.497Z,100022.78
2023-02-25T07:19:46.121Z,100028.00
2023-02-25T07:22:14.411Z,100038.84
2023-02-25T07:24:41.094Z,100021.72
2023-02-25T07:27:07.708Z,100045.13
2023-02-25T07:29:35.671Z,100043.94
2023-02-25T07:32:02.613Z,100044.97
2023-02-25T07:34:29.259Z,100000.97
2023-02-25T07:36:55.863Z,100049.59
2023-02-25T07:39:23.497Z,100044.97
2023-02-25T07:41:50.232Z,100044.03
2023-02-25T07:44:19.611Z,100033.94
2023-02-25T07:46:47.584Z,100036.09
2023-02-25T07:49:14.154Z,100048.94
2023-02-25T07:51:40.866Z,100046.97
2023-02-25T07:54:07.409Z,100036.28
2023-02-25T07:56:33.960Z,100036.59
2023-02-25T07:59:00.561Z,100043.34
2023-02-25T08:01:29.884Z,100051.34
2023-02-25T08:04:00.148Z,100038.81
2023-02-25T08:06:27.839Z,100053.19
2023-02-25T08:08:54.522Z,100053.28
2023-02-25T08:11:23.145Z,100061.25
2023-02-25T08:13:50.688Z,100069.28
2023-02-25T08:16:19.234Z,100069.78
2023-02-25T08:18:46.305Z,100050.50
2023-02-25T08:21:16.942Z,100056.16
2023-02-25T08:23:43.551Z,100065.00
2023-02-25T08:26:10.456Z,100053.25
2023-02-25T08:28:37.510Z,100053.00
2023-02-25T08:31:06.712Z,100053.66
2023-02-25T08:33:33.508Z,100059.63
2023-02-25T08:36:07.544Z,100064.00
2023-02-25T08:38:35.823Z,100030.56
2023-02-25T08:41:02.795Z,100073.63
2023-02-25T08:43:29.444Z,100044.16
2023-02-25T08:45:55.999Z,100064.91
2023-02-25T08:48:23.396Z,100060.06
2023-02-25T08:50:49.977Z,100065.47
2023-02-25T08:53:16.785Z,100063.94
2023-02-25T08:55:45.133Z,100063.31
2023-02-25T08:58:11.760Z,100061.19
2023-02-25T09:00:38.746Z,100069.41
2023-02-25T09:03:05.363Z,100078.16
2023-02-25T09:05:32.035Z,100069.22
2023-02-25T09:07:58.717Z,100069.16
2023-02-25T09:10:25.247Z,100057.25
2023-02-25T09:12:53.303Z,100049.03
2023-02-25T09:15:19.838Z,100062.44
2023-02-25T09:17:46.525Z,100068.78
2023-02-25T09:20:13.253Z,100019.94
2023-02-25T09:22:40.297Z,100049.25
2023-02-25T09:25:08.240Z,100067.81
2023-02-25T09:27:34.848Z,100060.06
2023-02-25T09:30:02.849Z,100068.84
2023-02-25T09:32:29.579Z,100076.09
2023-02-25T09:34:56.185Z,100075.59
2023-02-25T09:37:22.875Z,100076.09
2023-02-25T09:39:49.450Z,100083.84
2023-02-25T09:42:19.440Z,100042.50
2023-02-25T09:44:48.049Z,100092.78
2023-02-25T09:47:21.225Z,100094.44
2023-02-25T09:49:53.974Z,100076.69
2023-02-25T09:52:26.859Z,100090.28
2023-02-25T09:54:56.665Z,100090.91
2023-02-25T09:57:23.389Z,100105.16
2023-02-25T09:59:52.201Z,100095.63
2023-02-25T10:02:27.609Z,100061.44
2023-02-25T10:05:06.840Z,100087.94
2023-02-25T10:07:35.999Z,100115.63
2023-02-25T10:10:09.345Z,100108.25
2023-02-25T10:12:41.856Z,100093.13
2023-02-25T10:15:24.263Z,100115.63
2023-02-25T10:18:09.817Z,100133.78
2023-02-25T10:20:48.785Z,100131.31
2023-02-25T10:23:28.122Z,100127.50
2023-02-25T10:26:13.964Z,100117.50
2023-02-25T10:28:43.267Z,100119.13
2023-02-25T10:31:16.516Z,100127.38
2023-02-25T10:33:46.291Z,100064.19
2023-02-25T10:36:16.274Z,100104.06
2023-02-25T10:38:44.641Z,100117.66
2023-02-25T10:41:12.198Z,100120.13
2023-02-25T10:43:38.871Z,100115.94
2023-02-25T10:46:12.350Z,100133.75
2023-02-25T10:48:40.614Z,100131.03
2023-02-25T10:51:11.010Z,100135.84
2023-02-25T10:53:38.795Z,100139.16
2023-02-25T10:56:07.063Z,100132.00
2023-02-25T10:58:43.874Z,100100.09
2023-02-25T11:01:15.056Z,100136.06
2023-02-25T11:03:47.844Z,100141.66
2023-02-25T11:06:23.326Z,100113.66
2023-02-25T11:08:50.731Z,100144.75
2023-02-25T11:11:20.727Z,100137.38
2023-02-25T11:13:58.923Z,100148.00
2023-02-25T11:16:26.476Z,100162.69
2023-02-25T11:18:55.805Z,100174.25
2023-02-25T11:21:32.218Z,100182.41
2023-02-25T11:24:01.427Z,100168.00
2023-02-25T11:26:31.175Z,100148.59
2023-02-25T11:29:01.784Z,100164.06
2023-02-25T11:31:31.992Z,100175.75
2023-02-25T11:34:00.320Z,100166.31
2023-02-25T11:36:34.101Z,100156.91
2023-02-25T11:39:19.944Z,100163.00
2023-02-25T11:41:48.622Z,100112.94
2023-02-25T11:44:29.640Z,100163.00
2023-02-25T11:47:07.144Z,100150.13
2023-02-25T11:49:58.946Z,100148.06
2023-02-25T11:52:35.606Z,100150.44
2023-02-25T11:55:17.093Z,100148.53
2023-02-25T11:57:56.101Z,100157.69
2023-02-25T12:00:29.315Z,100156.13
2023-02-25T12:03:15.759Z,100148.63
2023-02-25T12:06:05.859Z,100159.47
2023-02-25T12:08:44.799Z,100165.56
2023-02-25T12:11:47.867Z,100174.66
2023-02-25T12:14:47.305Z,100204.00
2023-02-25T12:17:29.525Z,100204.19
2023-02-25T12:20:30.203Z,100200.38
2023-02-25T12:23:35.297Z,100187.56
2023-02-25T12:26:09.808Z,100186.09
2023-02-25T12:29:01.781Z,100193.44
2023-02-25T12:32:06.853Z,100196.34
2023-02-25T12:35:05.230Z,100195.22
2023-02-25T12:37:48.112Z,100182.22
2023-02-25T12:40:30.269Z,100186.22
2023-02-25T12:43:03.825Z,100180.63
2023-02-25T12:45:59.584Z,100154.63
2023-02-25T12:48:46.545Z,100183.03
2023-02-25T12:51:40.749Z,100121.94
2023-02-25T12:54:25.888Z,100077.97
2023-02-25T12:57:10.321Z,100164.13
2023-02-25T13:00:01.495Z,100183.88
2023-02-25T13:02:57.622Z,100175.22
2023-02-25T13:05:53.793Z,100172.03
2023-02-25T13:08:43.909Z,100173.69
2023-02-25T13:11:23.365Z,100167.50
2023-02-25T13:14:15.974Z,100166.53
2023-02-25T13:16:56.963Z,100168.22
2023-02-25T13:19:54.879Z,100173.22
2023-02-25T13:22:39.885Z,100166.47
2023-02-25T13:25:14.545Z,100171.59
2023-02-25T13:28:11.580Z,100174.53
2023-02-25T13:30:46.142Z,100188.09
2023-02-25T13:33:38.127Z,100184.09
2023-02-25T13:36:24.768Z,100177.41
2023-02-25T13:39:14.884Z,100188.53
2023-02-25T13:41:53.642Z,100203.69
2023-02-25T13:44:41.842Z,100209.94
2023-02-25T13:47:41.747Z,100203.97
2023-02-25T13:50:33.900Z,100214.13
2023-02-25T13:53:17.992Z,100207.09
2023-02-25T13:56:06.726Z,100167.25
2023-02-25T13:58:57.019Z,100225.22
2023-02-25T14:01:37.100Z,100214.38
2023-02-25T14:04:33.463Z,100217.47
2023-02-25T14:10:39.407Z,100212.91
2023-02-25T14:13:31.095Z,100215.66
2023-02-25T14:16:07.365Z,100216.94
2023-02-25T14:18:47.512Z,100218.69
2023-02-25T14:21:38.917Z,100220.72
2023-02-25T14:24:12.144Z,100231.09
2023-02-25T14:26:54.141Z,100222.31
2023-02-25T14:29:31.675Z,100221.50
2023-02-25T14:32:21.838Z,100223.06
2023-02-25T14:35:13.694Z,100229.63
2023-02-25T14:37:46.991Z,100234.84
2023-02-25T14:40:24.734Z,100240.34
2023-02-25T14:43:08.477Z,100258.59
2023-02-25T14:45:39.766Z,100221.63
2023-02-25T14:48:12.712Z,100250.13
2023-02-25T14:50:45.054Z,100262.16
2023-02-25T14:53:37.917Z,100269.22
2023-02-25T14:56:40.582Z,100270.78
2023-02-25T14:59:31.368Z,100267.91
2023-02-25T15:02:35.551Z,100267.91
2023-02-25T15:05:36.795Z,100267.44
2023-02-25T15:08:26.254Z,100253.25
2023-02-25T15:11:08.890Z,100261.47
2023-02-25T15:14:02.864Z,100207.44
2023-02-25T15:17:12.534Z,100273.63
2023-02-25T15:20:02.468Z,100279.72
2023-02-25T15:22:30.352Z,100278.91
2023-02-25T15:25:36.506Z,100284.25
2023-02-25T15:28:04.110Z,100295.34
2023-02-25T15:31:06.366Z,100299.28
2023-02-25T15:33:34.289Z,100300.13
2023-02-25T15:36:20.677Z,100302.50
2023-02-25T15:38:48.968Z,100283.16
2023-02-25T15:41:41.042Z,100314.53
2023-02-25T15:44:32.512Z,100321.69
2023-02-25T15:47:27.602Z,100329.06
2023-02-25T15:49:56.850Z,100339.06
2023-02-25T15:52:57.070Z,100343.31
2023-02-25T15:55:36.848Z,100341.78
2023-02-25T15:58:50.979Z,100334.25
2023-02-25T16:01:28.103Z,100342.91
2023-02-25T16:03:55.288Z,100342.03
2023-02-25T16:06:24.702Z,100342.31
2023-02-25T16:09:01.204Z,100353.00
2023-02-25T16:11:36.704Z,100359.00
2023-02-25T16:14:06.101Z,100359.88
2023-02-25T16:16:33.577Z,100369.00
2023-02-25T16:19:02.108Z,100376.06
2023-02-25T16:21:37.403Z,100371.44
2023-02-25T16:24:12.754Z,100381.84
2023-02-25T16:26:48.274Z,100386.56
2023-02-25T16:29:32.821Z,100399.56
2023-02-25T16:32:04.041Z,100393.06
2023-02-25T16:34:36.461Z,100401.66
2023-02-25T16:37:12.449Z,100401.22
2023-02-25T16:39:40.658Z,100408.00
2023-02-25T16:42:12.589Z,100407.97
2023-02-25T16:44:39.476Z,100415.13
2023-02-25T16:47:20.988Z,100424.16
2023-02-25T16:49:48.489Z,100426.38
2023-02-25T16:52:17.639Z,100407.69
2023-02-25T16:54:47.151Z,100428.94
2023-02-25T16:57:20.225Z,100444.00
2023-02-25T16:59:46.890Z,100430.50
2023-02-25T17:02:23.594Z,100445.78
2023-02-25T17:04:52.234Z,100446.09
2023-02-25T17:07:23.031Z,100454.69
2023-02-25T17:09:53.379Z,100460.09
2023-02-25T17:12:32.693Z,100463.94
2023-02-25T17:15:02.248Z,100473.53
2023-02-25T17:17:31.341Z,100450.78
2023-02-25T17:19:58.644Z,100475.75
2023-02-25T17:22:25.341Z,100456.81
2023-02-25T17:24:56.771Z,100487.13
2023-02-25T17:27:24.404Z,100476.81
2023-02-25T17:29:51.165Z,100484.00
2023-02-25T17:32:22.151Z,100504.50
2023-02-25T17:34:52.149Z,100490.91
2023-02-25T17:37:19.443Z,100489.97
2023-02-25T17:39:46.564Z,100514.59
2023-02-25T17:42:29.529Z,100511.59
2023-02-25T17:44:56.891Z,100520.59
2023-02-25T17:47:26.002Z,100521.66
2023-02-25T17:49:53.547Z,100522.00
2023-02-25T17:52:23.471Z,100521.44
2023-02-25T17:54:55.288Z,100531.44
2023-02-25T17:57:23.556Z,100531.53
2023-02-25T17:59:53.676Z,100534.47
2023-02-25T18:02:33.509Z,100538.41
2023-02-25T18:05:21.693Z,100543.44
2023-02-25T18:08:15.716Z,100543.94
2023-02-25T18:10:45.096Z,100549.78
2023-02-25T18:13:20.522Z,100552.84
2023-02-25T18:16:09.369Z,100551.56
2023-02-25T18:18:36.423Z,100557.56
2023-02-25T18:21:03.242Z,100559.47
2023-02-25T18:23:31.779Z,100570.28
2023-02-25T18:26:16.982Z,100567.97
2023-02-25T18:28:43.880Z,100564.91
2023-02-25T18:31:12.448Z,100562.63
2023-02-25T18:33:39.076Z,100569.88
2023-02-25T18:36:07.550Z,100582.31
2023-02-25T18:38:34.636Z,100589.50
2023-02-25T18:41:01.287Z,100586.28
2023-02-25T18:43:27.931Z,100595.78
2023-02-25T18:45:54.781Z,100569.47
2023-02-25T18:48:22.847Z,100590.53
2023-02-25T18:50:49.465Z,100606.56
2023-02-25T18:53:19.369Z,100587.38
2023-02-25T18:55:46.289Z,100599.34
2023-02-25T18:58:13.665Z,100604.81
2023-02-25T19:00:41.150Z,100609.47
2023-02-25T19:03:11.639Z,100588.13
2023-02-25T19:05:39.868Z,100607.13
2023-02-25T19:08:11.775Z,100620.88
2023-02-25T19:10:38.476Z,100612.72
2023-02-25T19:13:06.859Z,100623.31
2023-02-25T19:15:34.298Z,100628.72
2023-02-25T19:18:00.809Z,100634.09
2023-02-25T19:20:27.743Z,100644.81
2023-02-25T19:22:55.843Z,100645.72
2023-02-25T19:25:26.215Z,100644.22
2023-02-25T19:27:54.670Z,100635.72
2023-02-25T19:30:24.572Z,100641.09
2023-02-25T19:32:51.493Z,100653.63
2023-02-25T19:35:18.530Z,100655.69
2023-02-25T19:37:45.201Z,100659.06
2023-02-25T19:40:15.465Z,100660.28
2023-02-25T19:42:44.098Z,100663.28
2023-02-25T19:45:13.170Z,100660.97
2023-02-25T19:47:39.861Z,100674.06
2023-02-25T19:50:07.977Z,100675.94
2023-02-25T19:52:34.679Z,100673.44
2023-02-25T19:55:01.501Z,100648.34
2023-02-25T19:57:29.791Z,100682.56
2023-02-25T19:59:56.334Z,100681.00
2023-02-25T20:02:23.182Z,100682.81
2023-02-25T20:04:49.788Z,100684.88
2023-02-25T20:07:16.421Z,100684.78
2023-02-25T20:09:43.113Z,100684.88
2023-02-25T20:12:09.861Z,100694.53
2023-02-25T20:14:37.804Z,100677.91
2023-02-25T20:17:04.364Z,100694.97
2023-02-25T20:19:30.936Z,100705.53
2023-02-25T20:21:57.770Z,100703.00
2023-02-25T20:24:24.302Z,100712.66
2023-02-25T20:26:51.713Z,100700.03
2023-02-25T20:29:18.287Z,100713.72
2023-02-25T20:31:46.365Z,100715.50
2023-02-25T20:34:15.063Z,100709.00
2023-02-25T20:36:48.944Z,100724.41
2023-02-25T20:39:31.145Z,100715.16
2023-02-25T20:41:58.381Z,100704.41
2023-02-25T20:44:25.206Z,100737.47
2023-02-25T20:46:53.980Z,100743.72
2023-02-25T20:49:20.900Z,100744.72
2023-02-25T20:51:49.263Z,100750.69
2023-02-25T20:54:17.403Z,100751.63
2023-02-25T20:56:44.914Z,100756.06
2023-02-25T20:59:12.864Z,100753.66
2023-02-25T21:01:39.837Z,100764.09
2023-02-25T21:04:08.099Z,100777.88
2023-02-25T21:06:35.361Z,100761.63
2023-02-25T21:09:01.948Z,100777.22
2023-02-25T21:11:28.544Z,100781.53
2023-02-25T21:13:55.040Z,100784.25
2023-02-25T21:16:23.284Z,100781.75
2023-02-25T21:18:50.508Z,100777.66
2023-02-25T21:21:20.059Z,100780.09
2023-02-25T21:23:47.032Z,100781.88
2023-02-25T21:26:13.928Z,100783.66
2023-02-25T21:28:40.733Z,100782.00
2023-02-25T21:31:09.769Z,100787.34
2023-02-25T21:33:37.779Z,100787.41
2023-02-25T21:36:05.052Z,100789.28
2023-02-25T21:38:33.550Z,100790.16
2023-02-25T21:41:05.712Z,100793.66
2023-02-25T21:43:32.308Z,100788.47
2023-02-25T21:46:00.533Z,100798.03
2023-02-25T21:48:29.134Z,100790.34
2023-02-25T21:50:56.258Z,100784.56
2023-02-25T21:53:23.049Z,100793.84
2023-02-25T21:55:50.992Z,100790.53
2023-02-25T21:58:17.674Z,100788.94
2023-02-25T22:00:44.321Z,100724.75
2023-02-25T22:03:10.944Z,100790.00
2023-02-25T22:05:38.041Z,100798.66
2023-02-25T22:08:05.776Z,100794.31
2023-02-25T22:10:32.806Z,100783.31
2023-02-25T22:13:01.036Z,100788.22
2023-02-25T22:15:27.643Z,100804.19
2023-02-25T22:17:54.307Z,100795.59
2023-02-25T22:20:21.117Z,100800.69
2023-02-25T22:22:47.858Z,100779.47
2023-02-25T22:25:14.549Z,100789.44
2023-02-25T22:27:41.123Z,100801.13
2023-02-25T22:30:10.777Z,100791.66
2023-02-25T22:32:37.794Z,100804.19
2023-02-25T22:35:05.403Z,100802.25
2023-02-25T22:37:32.189Z,100770.03
2023-02-25T22:39:58.746Z,100802.84
2023-02-25T22:42:25.744Z,100789.34
2023-02-25T22:44:52.687Z,100799.41
2023-02-25T22:47:20.697Z,100806.16
2023-02-25T22:49:47.259Z,100817.50
2023-02-25T22:52:14.126Z,100816.91
2023-02-25T22:54:40.729Z,100814.53
2023-02-25T22:57:07.374Z,100818.78
2023-02-25T22:59:34.119Z,100807.03
2023-02-25T23:02:00.903Z,100820.03
2023-02-25T23:04:29.064Z,100821.91
2023-02-25T23:06:55.739Z,100773.72
2023-02-25T23:09:22.369Z,100822.94
2023-02-25T23:11:49.041Z,100823.78
2023-02-25T23:14:15.792Z,100805.19
2023-02-25T23:16:46.027Z,100780.03
2023-02-25T23:19:15.970Z,100781.06
2023-02-25T23:21:44.692Z,100813.19
2023-02-25T23:24:12.210Z,100820.88
2023-02-25T23:26:40.421Z,100824.50
2023-02-25T23:29:08.832Z,100827.22
2023-02-25T23:31:37.550Z,100823.03
2023-02-25T23:34:06.895Z,100836.09
2023-02-25T23:36:33.452Z,100832.72
2023-02-25T23:39:02.635Z,100828.59
2023-02-25T23:41:29.800Z,100832.91
2023-02-25T23:43:58.663Z,100842.50
2023-02-25T23:46:26.798Z,100824.78
2023-02-25T23:48:54.252Z,100835.16
2023-02-25T23:51:21.132Z,100841.16
2023-02-25T23:53:47.959Z,100842.97
2023-02-25T23:56:15.889Z,100831.25
2023-02-25T23:58:42.419Z,100837.28
